createdAt,value
2018-07-15T00:01:49.188Z,19.78
2018-07-15T00:04:18.795Z,19.57
2018-07-15T00:06:48.200Z,19.35
2018-07-15T00:09:17.999Z,19.18
2018-07-15T00:11:47.514Z,18.91
2018-07-15T00:14:16.743Z,19.16
2018-07-15T00:16:46.704Z,19.08
2018-07-15T00:19:15.376Z,19.38
2018-07-15T00:21:44.147Z,19.19
2018-07-15T00:24:13.299Z,19.32
2018-07-15T00:26:41.883Z,19.39
2018-07-15T00:29:10.437Z,19.41
2018-07-15T00:31:39.019Z,19.24
2018-07-15T00:34:07.596Z,18.97
2018-07-15T00:36:36.173Z,19.08
2018-07-15T00:39:05.944Z,19.27
2018-07-15T00:41:34.504Z,19.26
2018-07-15T00:44:03.215Z,19.47
2018-07-15T00:46:31.873Z,19.47
2018-07-15T00:49:00.464Z,19.40
2018-07-15T00:51:29.141Z,19.35
2018-07-15T00:53:57.716Z,19.23
2018-07-15T00:56:26.266Z,19.23
2018-07-15T00:58:54.837Z,19.22
2018-07-15T01:01:23.387Z,19.04
2018-07-15T01:03:51.981Z,19.23
2018-07-15T01:06:20.554Z,19.10
2018-07-15T01:08:49.160Z,19.11
2018-07-15T01:11:17.745Z,19.16
2018-07-15T01:13:46.324Z,19.09
2018-07-15T01:16:14.877Z,18.95
2018-07-15T01:18:43.458Z,18.51
2018-07-15T01:21:12.008Z,18.59
2018-07-15T01:23:40.601Z,18.78
2018-07-15T01:26:09.165Z,18.85
2018-07-15T01:28:37.733Z,18.93
2018-07-15T01:31:06.336Z,18.98
2018-07-15T01:33:34.977Z,18.90
2018-07-15T01:36:03.584Z,18.94
2018-07-15T01:38:32.093Z,18.71
2018-07-15T01:41:00.601Z,18.76
2018-07-15T01:43:29.544Z,18.43
2018-07-15T01:45:58.061Z,18.64
2018-07-15T01:48:26.611Z,18.73
2018-07-15T01:50:55.140Z,18.62
2018-07-15T01:53:23.685Z,18.69
2018-07-15T01:55:52.197Z,18.51
2018-07-15T01:58:20.738Z,18.44
2018-07-15T02:00:49.241Z,18.54
2018-07-15T02:03:17.784Z,18.32
2018-07-15T02:05:46.300Z,18.36
2018-07-15T02:08:14.840Z,18.41
2018-07-15T02:10:43.354Z,18.35
2018-07-15T02:13:11.917Z,18.31
2018-07-15T02:15:40.469Z,18.35
2018-07-15T02:18:09.010Z,18.33
2018-07-15T02:20:37.532Z,18.20
2018-07-15T02:23:06.097Z,18.25
2018-07-15T02:25:34.769Z,17.91
2018-07-15T02:28:03.397Z,18.03
2018-07-15T02:30:31.984Z,17.98
2018-07-15T02:33:00.616Z,18.05
2018-07-15T02:35:29.688Z,18.09
2018-07-15T02:37:59.638Z,17.89
2018-07-15T02:40:28.413Z,17.64
2018-07-15T02:42:57.133Z,17.81
2018-07-15T02:45:25.684Z,17.88
2018-07-15T02:47:54.208Z,17.85
2018-07-15T02:50:22.780Z,17.78
2018-07-15T02:52:51.311Z,17.45
2018-07-15T02:55:19.897Z,17.48
2018-07-15T02:57:48.452Z,17.61
2018-07-15T03:00:17.021Z,17.48
2018-07-15T03:02:45.557Z,17.60
2018-07-15T03:05:14.128Z,17.64
2018-07-15T03:07:42.695Z,17.34
2018-07-15T03:10:11.269Z,17.43
2018-07-15T03:12:40.097Z,17.44
2018-07-15T03:15:09.748Z,17.15
2018-07-15T03:17:38.288Z,17.14
2018-07-15T03:20:06.853Z,16.93
2018-07-15T03:22:35.389Z,16.99
2018-07-15T03:25:04.001Z,16.80
2018-07-15T03:27:32.528Z,16.96
2018-07-15T03:30:01.097Z,17.08
2018-07-15T03:32:29.883Z,17.13
2018-07-15T03:34:58.456Z,17.07
2018-07-15T03:37:26.957Z,17.07
2018-07-15T03:39:55.573Z,17.01
2018-07-15T03:42:24.056Z,16.76
2018-07-15T03:44:52.601Z,16.90
2018-07-15T03:47:21.120Z,17.03
2018-07-15T03:49:49.652Z,17.02
2018-07-15T03:52:18.189Z,16.98
2018-07-15T03:54:46.737Z,17.11
2018-07-15T03:57:15.245Z,17.09
2018-07-15T03:59:43.792Z,17.17
2018-07-15T04:02:12.306Z,16.94
2018-07-15T04:04:40.862Z,17.24
2018-07-15T04:07:09.383Z,16.83
2018-07-15T04:09:37.930Z,16.95
2018-07-15T04:12:06.443Z,17.31
2018-07-15T04:14:34.989Z,17.36
2018-07-15T04:17:03.496Z,17.43
2018-07-15T04:19:32.092Z,17.39
2018-07-15T04:22:00.609Z,17.29
2018-07-15T04:24:30.124Z,17.32
2018-07-15T04:26:58.647Z,17.47
2018-07-15T04:29:27.152Z,17.53
2018-07-15T04:31:55.731Z,17.50
2018-07-15T04:34:24.276Z,17.57
2018-07-15T04:36:52.817Z,17.40
2018-07-15T04:39:21.344Z,17.72
2018-07-15T04:41:49.946Z,17.38
2018-07-15T04:44:18.421Z,17.23
2018-07-15T04:46:46.964Z,17.64
2018-07-15T04:49:15.473Z,17.59
2018-07-15T04:51:44.024Z,17.73
2018-07-15T04:54:12.545Z,17.52
2018-07-15T04:56:41.087Z,17.68
2018-07-15T04:59:09.600Z,17.89
2018-07-15T05:01:41.972Z,18.03
2018-07-15T05:04:11.439Z,18.13
2018-07-15T05:06:39.976Z,18.20
2018-07-15T05:09:08.555Z,18.15
2018-07-15T05:11:38.041Z,17.93
2018-07-15T05:14:07.013Z,17.99
2018-07-15T05:16:35.816Z,17.87
2018-07-15T05:19:04.384Z,17.96
2018-07-15T05:21:32.973Z,18.01
2018-07-15T05:24:01.505Z,17.96
2018-07-15T05:26:30.242Z,17.99
2018-07-15T05:28:58.757Z,18.05
2018-07-15T05:31:27.296Z,18.11
2018-07-15T05:33:55.840Z,18.27
2018-07-15T05:36:24.373Z,18.33
2018-07-15T05:38:52.897Z,18.39
2018-07-15T05:41:21.483Z,18.49
2018-07-15T05:43:50.024Z,18.67
2018-07-15T05:46:18.600Z,18.73
2018-07-15T05:48:47.117Z,18.80
2018-07-15T05:51:15.677Z,18.73
2018-07-15T05:53:44.189Z,18.91
2018-07-15T05:56:12.735Z,18.94
2018-07-15T05:58:41.264Z,18.98
2018-07-15T06:01:09.855Z,19.09
2018-07-15T06:03:38.378Z,19.16
2018-07-15T06:06:06.946Z,19.26
2018-07-15T06:08:35.452Z,19.19
2018-07-15T06:11:04.257Z,19.44
2018-07-15T06:13:32.767Z,19.58
2018-07-15T06:16:01.335Z,19.74
2018-07-15T06:18:30.444Z,19.42
2018-07-15T06:20:59.000Z,19.68
2018-07-15T06:23:27.540Z,19.81
2018-07-15T06:25:56.064Z,19.82
2018-07-15T06:28:24.600Z,20.01
2018-07-15T06:30:53.124Z,20.13
2018-07-15T06:33:21.676Z,20.22
2018-07-15T06:35:50.240Z,20.25
2018-07-15T06:38:18.782Z,20.41
2018-07-15T06:40:47.372Z,20.46
2018-07-15T06:43:15.921Z,20.52
2018-07-15T06:45:45.772Z,20.57
2018-07-15T06:48:14.309Z,20.73
2018-07-15T06:50:42.804Z,20.86
2018-07-15T06:53:11.328Z,20.91
2018-07-15T06:55:39.824Z,21.00
2018-07-15T06:58:08.366Z,21.09
2018-07-15T07:00:36.868Z,21.19
2018-07-15T07:03:05.486Z,21.33
2018-07-15T07:05:34.032Z,21.43
2018-07-15T07:08:02.734Z,21.56
2018-07-15T07:10:31.240Z,21.65
2018-07-15T07:13:05.189Z,21.69
2018-07-15T07:15:33.705Z,21.77
2018-07-15T07:18:06.554Z,21.87
2018-07-15T07:20:35.112Z,21.92
2018-07-15T07:23:03.694Z,22.06
2018-07-15T07:25:32.241Z,22.11
2018-07-15T07:28:00.792Z,22.22
2018-07-15T07:30:29.300Z,22.37
2018-07-15T07:32:57.876Z,22.50
2018-07-15T07:35:26.495Z,22.63
2018-07-15T07:37:55.142Z,22.79
2018-07-15T07:40:23.748Z,22.78
2018-07-15T07:42:52.311Z,22.89
2018-07-15T07:45:21.309Z,23.04
2018-07-15T07:47:49.872Z,23.19
2018-07-15T07:50:18.401Z,23.28
2018-07-15T07:52:46.955Z,23.35
2018-07-15T07:55:15.488Z,23.52
2018-07-15T07:57:44.917Z,23.57
2018-07-15T08:00:13.453Z,23.60
2018-07-15T08:02:42.041Z,23.61
2018-07-15T08:05:10.563Z,23.72
2018-07-15T08:07:39.184Z,23.69
2018-07-15T08:10:07.729Z,23.98
2018-07-15T08:12:36.309Z,23.92
2018-07-15T08:15:07.580Z,24.02
2018-07-15T08:17:36.373Z,24.06
2018-07-15T08:20:06.876Z,24.18
2018-07-15T08:22:38.902Z,23.95
2018-07-15T08:25:11.192Z,24.09
2018-07-15T08:27:52.868Z,24.29
2018-07-15T08:30:36.072Z,24.33
2018-07-15T08:33:15.074Z,24.24
2018-07-15T08:35:52.932Z,24.29
2018-07-15T08:38:32.978Z,24.49
2018-07-15T08:41:46.335Z,24.45
2018-07-15T08:44:29.730Z,24.59
2018-07-15T08:47:11.992Z,24.47
2018-07-15T08:49:52.064Z,24.57
2018-07-15T08:52:36.718Z,24.65
2018-07-15T08:55:18.331Z,24.85
2018-07-15T08:58:02.105Z,24.81
2018-07-15T09:03:26.042Z,25.09
2018-07-15T09:06:08.164Z,25.15
2018-07-15T09:08:48.553Z,25.22
2018-07-15T09:11:24.152Z,25.19
2018-07-15T09:14:01.337Z,25.34
2018-07-15T09:16:36.130Z,25.59
2018-07-15T09:19:14.796Z,25.40
2018-07-15T09:21:51.174Z,25.46
2018-07-15T09:24:28.031Z,25.45
2018-07-15T09:27:05.376Z,25.49
2018-07-15T09:29:41.894Z,25.76
2018-07-15T09:32:18.393Z,25.96
2018-07-15T09:34:55.507Z,26.06
2018-07-15T09:37:30.837Z,26.06
2018-07-15T09:40:04.876Z,25.98
2018-07-15T09:42:35.269Z,25.79
2018-07-15T09:45:04.485Z,25.81
2018-07-15T09:47:33.234Z,25.79
2018-07-15T09:50:02.758Z,25.92
2018-07-15T09:52:31.297Z,25.91
2018-07-15T09:54:59.854Z,26.06
2018-07-15T09:57:28.414Z,26.33
2018-07-15T10:00:07.848Z,26.47
2018-07-15T10:02:36.373Z,26.74
2018-07-15T10:05:04.959Z,26.80
2018-07-15T10:07:34.567Z,27.24
2018-07-15T10:10:03.134Z,27.37
2018-07-15T10:12:31.656Z,27.27
2018-07-15T10:15:00.497Z,27.36
2018-07-15T10:17:29.029Z,27.58
2018-07-15T10:20:04.076Z,27.63
2018-07-15T10:22:32.800Z,27.70
2018-07-15T10:25:01.357Z,27.99
2018-07-15T10:27:29.872Z,28.12
2018-07-15T10:29:58.417Z,28.14
2018-07-15T10:32:26.968Z,27.96
2018-07-15T10:34:55.544Z,28.03
2018-07-15T10:37:24.069Z,28.20
2018-07-15T10:39:52.621Z,28.26
2018-07-15T10:42:21.141Z,28.20
2018-07-15T10:44:49.696Z,28.24
2018-07-15T10:47:18.238Z,28.44
2018-07-15T10:49:54.297Z,28.37
2018-07-15T10:52:28.658Z,28.41
2018-07-15T10:55:02.762Z,28.35
2018-07-15T10:57:34.870Z,28.23
2018-07-15T11:00:05.535Z,28.30
2018-07-15T11:02:36.179Z,28.07
2018-07-15T11:05:07.370Z,28.19
2018-07-15T11:07:36.026Z,28.47
2018-07-15T11:10:09.008Z,28.35
2018-07-15T11:12:43.219Z,28.32
2018-07-15T11:15:13.998Z,28.33
2018-07-15T11:17:49.419Z,28.35
2018-07-15T11:20:22.058Z,28.48
2018-07-15T11:22:54.143Z,28.31
2018-07-15T11:25:25.600Z,28.24
2018-07-15T11:28:00.242Z,28.25
2018-07-15T11:30:28.980Z,28.47
2018-07-15T11:33:01.816Z,28.52
2018-07-15T11:35:35.844Z,28.36
2018-07-15T11:38:06.205Z,28.00
2018-07-15T11:40:41.621Z,28.07
2018-07-15T11:43:11.466Z,27.83
2018-07-15T11:45:47.102Z,27.97
2018-07-15T11:48:18.182Z,28.01
2018-07-15T11:50:46.941Z,27.75
2018-07-15T11:53:19.819Z,27.88
2018-07-15T11:55:53.487Z,28.41
2018-07-15T11:58:28.006Z,28.70
2018-07-15T12:00:59.699Z,28.84
2018-07-15T12:03:31.692Z,28.51
2018-07-15T12:06:01.431Z,28.90
2018-07-15T12:08:34.615Z,28.69
2018-07-15T12:11:07.900Z,28.61
2018-07-15T12:13:40.299Z,28.00
2018-07-15T12:16:13.644Z,28.16
2018-07-15T12:18:44.065Z,28.15
2018-07-15T12:21:14.670Z,28.46
2018-07-15T12:23:47.021Z,28.13
2018-07-15T12:26:20.591Z,27.74
2018-07-15T12:28:52.297Z,27.70
2018-07-15T12:31:22.009Z,27.84
2018-07-15T12:33:50.848Z,27.81
2018-07-15T12:36:25.365Z,27.78
2018-07-15T12:38:59.611Z,26.75
2018-07-15T12:41:30.009Z,26.34
2018-07-15T12:44:02.785Z,26.15
2018-07-15T12:46:37.546Z,26.30
2018-07-15T12:49:11.167Z,26.14
2018-07-15T12:51:43.525Z,25.93
2018-07-15T12:54:14.217Z,25.57
2018-07-15T12:56:47.148Z,25.33
2018-07-15T12:59:18.732Z,25.43
2018-07-15T13:01:47.449Z,25.66
2018-07-15T13:04:19.618Z,25.57
2018-07-15T13:06:51.459Z,25.70
2018-07-15T13:09:26.183Z,25.53
2018-07-15T13:12:00.451Z,25.43
2018-07-15T13:14:32.417Z,24.94
2018-07-15T13:17:01.699Z,25.17
2018-07-15T13:19:30.222Z,25.30
2018-07-15T13:21:58.776Z,25.08
2018-07-15T13:24:31.810Z,25.45
2018-07-15T13:27:00.722Z,25.51
2018-07-15T13:29:29.289Z,25.33
2018-07-15T13:31:57.909Z,25.13
2018-07-15T13:34:33.956Z,25.02
2018-07-15T13:37:02.844Z,25.19
2018-07-15T13:39:31.474Z,24.92
2018-07-15T13:42:00.076Z,25.23
2018-07-15T13:44:28.626Z,25.24
2018-07-15T13:46:57.185Z,25.37
2018-07-15T13:49:25.741Z,25.57
2018-07-15T13:51:54.317Z,25.65
2018-07-15T13:54:22.863Z,25.40
2018-07-15T13:56:51.390Z,25.54
2018-07-15T13:59:19.940Z,25.58
2018-07-15T14:01:48.474Z,25.55
2018-07-15T14:04:17.140Z,25.82
2018-07-15T14:06:45.625Z,25.82
2018-07-15T14:09:14.185Z,25.94
2018-07-15T14:11:42.721Z,25.85
2018-07-15T14:14:11.297Z,26.00
2018-07-15T14:16:41.311Z,25.95
2018-07-15T14:19:09.902Z,25.75
2018-07-15T14:21:38.696Z,26.15
2018-07-15T14:24:07.255Z,26.36
2018-07-15T14:26:35.876Z,26.46
2018-07-15T14:29:04.453Z,26.95
2018-07-15T14:31:33.017Z,27.31
2018-07-15T14:34:01.593Z,27.25
2018-07-15T14:36:30.096Z,27.44
2018-07-15T14:38:58.648Z,27.53
2018-07-15T14:41:27.185Z,27.51
2018-07-15T14:43:55.756Z,27.40
2018-07-15T14:46:24.317Z,27.26
2018-07-15T14:48:52.869Z,27.35
2018-07-15T14:51:21.383Z,27.50
2018-07-15T14:53:49.935Z,27.42
2018-07-15T14:56:18.513Z,27.08
2018-07-15T14:58:47.068Z,27.06
2018-07-15T15:01:15.581Z,26.42
2018-07-15T15:03:44.128Z,26.39
2018-07-15T15:06:12.628Z,26.69
2018-07-15T15:08:41.181Z,26.60
2018-07-15T15:11:09.705Z,26.66
2018-07-15T15:13:38.966Z,25.84
2018-07-15T15:16:07.497Z,25.55
2018-07-15T15:18:36.046Z,25.23
2018-07-15T15:21:04.572Z,25.43
2018-07-15T15:23:33.119Z,25.79
2018-07-15T15:26:01.644Z,25.45
2018-07-15T15:28:30.485Z,25.51
2018-07-15T15:30:58.993Z,25.96
2018-07-15T15:33:27.541Z,26.03
2018-07-15T15:35:56.125Z,26.18
2018-07-15T15:38:24.808Z,26.53
2018-07-15T15:40:53.344Z,26.82
2018-07-15T15:43:22.765Z,26.69
2018-07-15T15:45:51.308Z,26.74
2018-07-15T15:48:19.865Z,26.58
2018-07-15T15:50:48.404Z,26.58
2018-07-15T15:53:16.985Z,26.84
2018-07-15T15:55:45.561Z,26.22
2018-07-15T15:58:14.204Z,26.47
2018-07-15T16:00:42.720Z,26.59
2018-07-15T16:03:11.265Z,26.82
2018-07-15T16:05:40.072Z,26.69
2018-07-15T16:08:09.084Z,26.68
2018-07-15T16:10:37.654Z,26.54
2018-07-15T16:13:06.411Z,26.52
2018-07-15T16:15:35.009Z,26.35
2018-07-15T16:18:03.823Z,26.85
2018-07-15T16:20:32.418Z,26.94
2018-07-15T16:23:01.099Z,27.45
2018-07-15T16:25:29.669Z,27.10
2018-07-15T16:27:58.206Z,26.47
2018-07-15T16:30:26.768Z,26.15
2018-07-15T16:32:55.313Z,25.34
2018-07-15T16:35:24.182Z,24.94
2018-07-15T16:37:53.683Z,24.97
2018-07-15T16:40:22.299Z,24.71
2018-07-15T16:42:50.968Z,24.27
2018-07-15T16:45:19.857Z,24.11
2018-07-15T16:47:49.111Z,24.21
2018-07-15T16:50:17.721Z,24.09
2018-07-15T16:52:47.421Z,24.31
2018-07-15T16:55:17.580Z,23.79
2018-07-15T16:57:46.205Z,23.77
2018-07-15T17:00:14.772Z,24.03
2018-07-15T17:02:44.240Z,23.67
2018-07-15T17:05:14.340Z,23.51
2018-07-15T17:07:44.379Z,23.71
2018-07-15T17:10:14.900Z,23.53
2018-07-15T17:12:43.889Z,23.30
2018-07-15T17:15:12.862Z,23.26
2018-07-15T17:17:42.285Z,23.42
2018-07-15T17:20:11.979Z,23.17
2018-07-15T17:22:40.469Z,23.11
2018-07-15T17:25:09.401Z,22.96
2018-07-15T17:27:39.949Z,22.79
2018-07-15T17:30:09.654Z,22.91
2018-07-15T17:32:38.196Z,23.12
2018-07-15T17:35:07.646Z,23.24
2018-07-15T17:37:36.432Z,23.41
2018-07-15T17:40:06.268Z,23.25
2018-07-15T17:42:34.875Z,23.36
2018-07-15T17:45:03.423Z,23.35
2018-07-15T17:47:31.937Z,23.20
2018-07-15T17:50:00.528Z,22.80
2018-07-15T17:52:29.054Z,23.01
2018-07-15T17:54:57.605Z,22.54
2018-07-15T17:57:26.140Z,22.03
2018-07-15T17:59:54.688Z,22.14
2018-07-15T18:02:23.229Z,22.26
2018-07-15T18:04:51.759Z,22.59
2018-07-15T18:07:20.309Z,22.58
2018-07-15T18:09:48.813Z,22.72
2018-07-15T18:12:17.384Z,22.31
2018-07-15T18:14:46.013Z,22.55
2018-07-15T18:17:14.656Z,22.45
2018-07-15T18:19:43.314Z,22.40
2018-07-15T18:22:12.359Z,22.56
2018-07-15T18:24:40.910Z,22.76
2018-07-15T18:27:09.452Z,23.20
2018-07-15T18:29:38.547Z,23.32
2018-07-15T18:32:07.173Z,22.75
2018-07-15T18:34:35.764Z,23.02
2018-07-15T18:37:04.341Z,23.28
2018-07-15T18:39:32.861Z,23.35
2018-07-15T18:42:01.495Z,23.77
2018-07-15T18:44:30.393Z,23.35
2018-07-15T18:46:59.977Z,23.37
2018-07-15T18:49:28.697Z,23.15
2018-07-15T18:51:57.261Z,23.04
2018-07-15T18:54:25.806Z,23.12
2018-07-15T18:56:54.376Z,22.85
2018-07-15T18:59:23.673Z,22.40
2018-07-15T19:01:56.018Z,22.28
2018-07-15T19:04:27.487Z,22.54
2018-07-15T19:06:59.325Z,22.04
2018-07-15T19:09:28.013Z,22.08
2018-07-15T19:12:01.306Z,21.99
2018-07-15T19:14:31.075Z,21.80
2018-07-15T19:17:00.304Z,21.73
2018-07-15T19:19:31.602Z,21.86
2018-07-15T19:22:01.052Z,21.61
2018-07-15T19:24:33.523Z,21.69
2018-07-15T19:27:02.999Z,21.67
2018-07-15T19:29:36.024Z,21.72
2018-07-15T19:32:07.264Z,21.65
2018-07-15T19:34:36.969Z,21.49
2018-07-15T19:37:07.410Z,21.48
2018-07-15T19:39:39.360Z,21.33
2018-07-15T19:42:10.312Z,21.23
2018-07-15T19:44:41.268Z,20.92
2018-07-15T19:47:11.017Z,20.98
2018-07-15T19:49:39.788Z,21.24
2018-07-15T19:52:11.263Z,20.81
2018-07-15T19:54:44.774Z,20.93
2018-07-15T19:57:14.751Z,20.54
2018-07-15T19:59:43.346Z,20.97
2018-07-15T20:02:12.291Z,21.00
2018-07-15T20:04:40.837Z,20.69
2018-07-15T20:07:09.433Z,20.53
2018-07-15T20:09:38.794Z,20.58
2018-07-15T20:12:07.629Z,20.41
2018-07-15T20:14:36.272Z,20.60
2018-07-15T20:17:04.857Z,20.57
2018-07-15T20:19:33.406Z,20.79
2018-07-15T20:22:02.160Z,20.54
2018-07-15T20:24:30.704Z,20.25
2018-07-15T20:26:59.283Z,20.34
2018-07-15T20:29:28.517Z,20.30
2018-07-15T20:31:57.081Z,20.21
2018-07-15T20:34:25.790Z,20.34
2018-07-15T20:36:58.245Z,20.16
2018-07-15T20:39:30.665Z,20.18
2018-07-15T20:42:00.428Z,20.23
2018-07-15T20:44:34.987Z,20.29
2018-07-15T20:47:08.271Z,20.12
2018-07-15T20:49:43.441Z,19.93
2018-07-15T20:52:14.138Z,19.69
2018-07-15T20:54:48.035Z,19.63
2018-07-15T20:57:17.301Z,19.26
2018-07-15T20:59:45.902Z,19.47
2018-07-15T21:02:15.463Z,19.33
2018-07-15T21:04:51.271Z,19.39
2018-07-15T21:07:24.334Z,19.32
2018-07-15T21:10:00.299Z,19.46
2018-07-15T21:12:31.212Z,19.45
2018-07-15T21:15:01.256Z,19.27
2018-07-15T21:17:37.402Z,19.12
2018-07-15T21:20:08.146Z,19.09
2018-07-15T21:22:37.667Z,19.10
2018-07-15T21:25:09.628Z,19.27
2018-07-15T21:27:38.776Z,19.08
2018-07-15T21:30:07.851Z,18.93
2018-07-15T21:32:37.189Z,18.87
2018-07-15T21:35:07.465Z,19.01
2018-07-15T21:37:41.882Z,18.91
2018-07-15T21:40:17.359Z,18.79
2018-07-15T21:42:50.591Z,18.70
2018-07-15T21:45:21.431Z,18.53
2018-07-15T21:47:51.020Z,18.32
2018-07-15T21:50:20.465Z,18.45
2018-07-15T21:52:55.153Z,18.56
2018-07-15T21:55:25.072Z,18.56
2018-07-15T21:57:55.693Z,18.54
2018-07-15T22:00:25.013Z,18.44
2018-07-15T22:02:55.167Z,18.29
2018-07-15T22:05:24.023Z,18.13
2018-07-15T22:08:06.475Z,17.93
2018-07-15T22:10:42.418Z,17.86
2018-07-15T22:13:12.024Z,18.05
2018-07-15T22:15:42.214Z,18.02
2018-07-15T22:18:16.423Z,17.82
2018-07-15T22:20:49.015Z,17.99
2018-07-15T22:23:22.477Z,17.95
2018-07-15T22:25:55.734Z,17.73
2018-07-15T22:28:26.432Z,17.69
2018-07-15T22:31:02.045Z,17.72
2018-07-15T22:33:32.677Z,17.76
2018-07-15T22:36:05.096Z,17.77
2018-07-15T22:38:34.261Z,17.65
2018-07-15T22:41:03.974Z,17.64
2018-07-15T22:43:32.503Z,17.70
2018-07-15T22:46:01.152Z,17.65
2018-07-15T22:48:29.721Z,17.42
2018-07-15T22:50:58.292Z,17.45
2018-07-15T22:53:26.814Z,17.40
2018-07-15T22:55:55.645Z,17.38
2018-07-15T22:58:24.195Z,17.40
2018-07-15T23:00:52.914Z,17.35
2018-07-15T23:03:21.449Z,17.42
2018-07-15T23:06:01.601Z,17.10
2018-07-15T23:08:31.389Z,17.24
2018-07-15T23:11:00.101Z,17.13
2018-07-15T23:13:28.638Z,17.32
2018-07-15T23:15:57.203Z,17.28
2018-07-15T23:18:25.744Z,17.22
2018-07-15T23:20:54.329Z,17.18
2018-07-15T23:23:22.844Z,17.18
2018-07-15T23:25:51.404Z,16.85
2018-07-15T23:28:20.800Z,16.98
2018-07-15T23:30:49.357Z,17.04
2018-07-15T23:33:17.872Z,16.78
2018-07-15T23:35:46.481Z,16.86
2018-07-15T23:38:14.997Z,17.05
2018-07-15T23:40:43.537Z,17.13
2018-07-15T23:43:12.040Z,17.08
2018-07-15T23:45:40.836Z,17.12
2018-07-15T23:48:09.385Z,16.76
2018-07-15T23:50:37.917Z,16.60
2018-07-15T23:53:06.500Z,16.72
2018-07-15T23:55:35.132Z,16.52
2018-07-15T23:58:03.656Z,16.59
